Wetterdaten: Woche 26.12.16 - 01.01.17 (KW52)
Datum Zeit Temperatur Luftfeuchte Luftdruck Niederschlag Windrichtung Sonnenschein Solar Wind
26.12.2016 00:00 4,2 C 93 % 1029,8 hPa 0,0 l/m S-SW 0,00 h 0 W/m 7,6 km/h (2 Bft)
26.12.2016 01:00 3,9 C 93 % 1029,8 hPa 0,0 l/m S-SW 0,00 h 0 W/m 9,1 km/h (2 Bft)
26.12.2016 02:00 3,5 C 94 % 1029,8 hPa 0,0 l/m N 0,00 h 0 W/m 1,5 km/h (1 Bft)
26.12.2016 03:00 3,2 C 94 % 1029,7 hPa 0,0 l/m N 0,00 h 0 W/m 0,0 km/h (0 Bft)
26.12.2016 04:00 2,8 C 94 % 1029,5 hPa 0,0 l/m N 0,00 h 0 W/m 0,0 km/h (0 Bft)
26.12.2016 05:00 2,1 C 94 % 1029,2 hPa 0,0 l/m N 0,00 h 0 W/m 0,0 km/h (0 Bft)
26.12.2016 06:00 1,1 C 94 % 1029,1 hPa 0,0 l/m N 0,00 h 0 W/m 0,0 km/h (0 Bft)
26.12.2016 07:00 0,5 C 94 % 1028,9 hPa 0,0 l/m N 0,00 h 0 W/m 0,0 km/h (0 Bft)
26.12.2016 08:00 0,2 C 95 % 1029,1 hPa 0,0 l/m S-SW 0,58 h 28 W/m 0,7 km/h (0 Bft)
26.12.2016 09:00 1,4 C 97 % 1028,8 hPa 0,0 l/m S-SW 0,92 h 103 W/m 7,9 km/h (2 Bft)
26.12.2016 10:00 3,4 C 98 % 1029,5 hPa 0,0 l/m S-SO 0,67 h 172 W/m 11,4 km/h (2 Bft)
26.12.2016 11:00 5,4 C 97 % 1029,4 hPa 0,0 l/m S 1,00 h 271 W/m 12,1 km/h (2 Bft)
26.12.2016 12:00 8,8 C 85 % 1029,1 hPa 0,0 l/m S-SW 0,67 h 233 W/m 12,1 km/h (2 Bft)
26.12.2016 13:00 8,9 C 81 % 1029,2 hPa 0,0 l/m W-SW 0,17 h 155 W/m 12,3 km/h (3 Bft)
26.12.2016 14:00 7,8 C 84 % 1029,9 hPa 0,0 l/m W-NW 0,58 h 131 W/m 10,2 km/h (2 Bft)
26.12.2016 15:00 6,8 C 88 % 1030,8 hPa 0,0 l/m W 0,17 h 63 W/m 11,3 km/h (2 Bft)
26.12.2016 16:00 6,0 C 91 % 1031,3 hPa 0,0 l/m SW 0,00 h 8 W/m 12,2 km/h (2 Bft)
26.12.2016 17:00 5,8 C 92 % 1031,8 hPa 0,0 l/m SW 0,00 h 0 W/m 14,8 km/h (3 Bft)
26.12.2016 18:00 5,4 C 93 % 1032,2 hPa 0,0 l/m SW 0,00 h 0 W/m 17,8 km/h (3 Bft)
26.12.2016 19:00 5,4 C 94 % 1032,6 hPa 0,0 l/m W-SW 0,00 h 0 W/m 15,3 km/h (3 Bft)
26.12.2016 20:00 5,7 C 94 % 1033,3 hPa 0,4 l/m W-SW 0,00 h 0 W/m 15,2 km/h (3 Bft)
26.12.2016 21:00 5,6 C 95 % 1034,4 hPa 0,2 l/m NW 0,00 h 0 W/m 8,0 km/h (2 Bft)
26.12.2016 22:00 4,9 C 94 % 1035,0 hPa 0,0 l/m NW 0,00 h 0 W/m 5,2 km/h (1 Bft)
26.12.2016 23:00 4,1 C 94 % 1035,3 hPa 0,0 l/m N 0,00 h 0 W/m 1,3 km/h (1 Bft)
27.12.2016 00:00 2,9 C 93 % 1035,2 hPa 0,0 l/m NW 0,00 h 0 W/m 5,5 km/h (1 Bft)
27.12.2016 01:00 1,7 C 93 % 1035,5 hPa 0,0 l/m NW 0,00 h 0 W/m 5,7 km/h (1 Bft)
27.12.2016 02:00 1,1 C 94 % 1036,1 hPa 0,2 l/m W-NW 0,00 h 0 W/m 9,8 km/h (2 Bft)
27.12.2016 03:00 0,8 C 93 % 1036,6 hPa 0,0 l/m W-NW 0,00 h 0 W/m 9,7 km/h (2 Bft)
27.12.2016 04:00 0,7 C 93 % 1037,2 hPa 0,0 l/m W-NW 0,00 h 0 W/m 7,7 km/h (2 Bft)
27.12.2016 05:00 0,2 C 92 % 1038,0 hPa 0,0 l/m W-NW 0,00 h 0 W/m 5,2 km/h (1 Bft)
27.12.2016 06:00 -0,5 C 92 % 1038,5 hPa 0,0 l/m N 0,00 h 0 W/m 0,0 km/h (0 Bft)
27.12.2016 07:00 -1,6 C 93 % 1038,9 hPa 0,0 l/m W-NW 0,00 h 0 W/m 3,7 km/h (1 Bft)
27.12.2016 08:00 -1,5 C 94 % 1039,4 hPa 0,0 l/m W-NW 0,25 h 20 W/m 6,4 km/h (2 Bft)
27.12.2016 09:00 -1,2 C 95 % 1040,1 hPa 0,0 l/m W-NW 0,67 h 120 W/m 6,0 km/h (2 Bft)
27.12.2016 10:00 0,2 C 95 % 1040,6 hPa 0,0 l/m W 1,00 h 208 W/m 8,4 km/h (2 Bft)
27.12.2016 11:00 2,0 C 87 % 1040,3 hPa 0,0 l/m W-NW 1,00 h 268 W/m 12,5 km/h (3 Bft)
27.12.2016 12:00 3,4 C 78 % 1039,9 hPa 0,0 l/m W-NW 1,00 h 264 W/m 9,0 km/h (2 Bft)
27.12.2016 13:00 4,0 C 74 % 1040,1 hPa 0,0 l/m W-NW 1,00 h 237 W/m 12,2 km/h (2 Bft)
27.12.2016 14:00 4,7 C 68 % 1040,3 hPa 0,0 l/m NW 0,83 h 146 W/m 8,9 km/h (2 Bft)
27.12.2016 15:00 4,2 C 69 % 1041,2 hPa 0,0 l/m N-NW 0,00 h 51 W/m 5,9 km/h (2 Bft)
27.12.2016 16:00 3,4 C 73 % 1041,8 hPa 0,0 l/m N-NW 0,17 h 17 W/m 1,6 km/h (1 Bft)
27.12.2016 17:00 2,4 C 78 % 1042,4 hPa 0,0 l/m N 0,00 h 0 W/m 0,0 km/h (0 Bft)
27.12.2016 18:00 1,5 C 81 % 1043,1 hPa 0,0 l/m N 0,00 h 0 W/m 0,0 km/h (0 Bft)
27.12.2016 19:00 0,3 C 83 % 1043,5 hPa 0,0 l/m N 0,00 h 0 W/m 0,4 km/h (0 Bft)
27.12.2016 20:00 -0,3 C 88 % 1043,5 hPa 0,0 l/m N 0,00 h 0 W/m 0,0 km/h (0 Bft)
27.12.2016 21:00 -0,2 C 90 % 1044,0 hPa 0,0 l/m N 0,00 h 0 W/m 0,0 km/h (0 Bft)
27.12.2016 22:00 -0,2 C 90 % 1044,3 hPa 0,0 l/m N 0,00 h 0 W/m 0,0 km/h (0 Bft)
27.12.2016 23:00 -0,5 C 90 % 1044,0 hPa 0,0 l/m N 0,00 h 0 W/m 0,0 km/h (0 Bft)
28.12.2016 00:00 -1,3 C 90 % 1043,8 hPa 0,0 l/m N 0,00 h 0 W/m 0,0 km/h (0 Bft)
28.12.2016 01:00 -1,8 C 92 % 1043,4 hPa 0,0 l/m N 0,00 h 0 W/m 0,0 km/h (0 Bft)
28.12.2016 02:00 -2,0 C 92 % 1043,2 hPa 0,0 l/m N 0,00 h 0 W/m 0,0 km/h (0 Bft)
28.12.2016 03:00 -2,6 C 92 % 1043,4 hPa 0,0 l/m N 0,00 h 0 W/m 0,0 km/h (0 Bft)
28.12.2016 04:00 -3,1 C 93 % 1043,5 hPa 0,0 l/m N 0,00 h 0 W/m 0,0 km/h (0 Bft)
28.12.2016 05:00 -3,6 C 93 % 1043,3 hPa 0,0 l/m N 0,00 h 0 W/m 0,0 km/h (0 Bft)
28.12.2016 06:00 -4,0 C 93 % 1043,3 hPa 0,0 l/m N 0,00 h 0 W/m 0,0 km/h (0 Bft)
28.12.2016 07:00 -4,3 C 94 % 1043,8 hPa 0,0 l/m N 0,00 h 0 W/m 0,0 km/h (0 Bft)
28.12.2016 08:00 -4,5 C 94 % 1044,0 hPa 0,0 l/m N 0,08 h 18 W/m 0,0 km/h (0 Bft)
28.12.2016 09:00 -4,1 C 95 % 1043,9 hPa 0,0 l/m N 0,25 h 88 W/m 0,3 km/h (0 Bft)
28.12.2016 10:00 -1,7 C 96 % 1044,1 hPa 0,0 l/m N-NW 0,92 h 167 W/m 0,4 km/h (0 Bft)
28.12.2016 11:00 0,3 C 94 % 1044,2 hPa 0,0 l/m N 1,00 h 241 W/m 0,8 km/h (0 Bft)
28.12.2016 12:00 2,5 C 87 % 1043,5 hPa 0,0 l/m N-NW 1,00 h 258 W/m 5,9 km/h (2 Bft)
28.12.2016 13:00 3,7 C 82 % 1042,7 hPa 0,0 l/m O-NO 0,92 h 262 W/m 10,8 km/h (2 Bft)
28.12.2016 14:00 3,1 C 83 % 1042,1 hPa 0,0 l/m NO 0,50 h 144 W/m 11,0 km/h (2 Bft)
28.12.2016 15:00 2,3 C 84 % 1041,8 hPa 0,0 l/m NO 0,08 h 53 W/m 7,9 km/h (2 Bft)
28.12.2016 16:00 1,5 C 85 % 1041,8 hPa 0,0 l/m N-NO 0,08 h 13 W/m 1,3 km/h (1 Bft)
28.12.2016 17:00 0,3 C 86 % 1042,0 hPa 0,0 l/m N 0,00 h 0 W/m 0,0 km/h (0 Bft)
28.12.2016 18:00 -1,0 C 87 % 1042,2 hPa 0,0 l/m N 0,00 h 0 W/m 0,0 km/h (0 Bft)
28.12.2016 19:00 -1,8 C 90 % 1042,2 hPa 0,0 l/m N 0,00 h 0 W/m 0,0 km/h (0 Bft)
28.12.2016 20:00 -2,1 C 91 % 1042,5 hPa 0,0 l/m N-NO 0,00 h 0 W/m 0,9 km/h (0 Bft)
28.12.2016 21:00 -2,2 C 93 % 1042,3 hPa 0,0 l/m N 0,00 h 0 W/m 0,8 km/h (0 Bft)
28.12.2016 22:00 -2,6 C 94 % 1042,0 hPa 0,0 l/m N-NO 0,00 h 0 W/m 1,5 km/h (1 Bft)
28.12.2016 23:00 -2,9 C 94 % 1041,9 hPa 0,0 l/m N-NO 0,00 h 0 W/m 0,9 km/h (0 Bft)
29.12.2016 00:00 -3,3 C 94 % 1041,3 hPa 0,0 l/m N 0,00 h 0 W/m 0,0 km/h (0 Bft)
29.12.2016 01:00 -3,6 C 94 % 1040,8 hPa 0,0 l/m N 0,00 h 0 W/m 0,0 km/h (0 Bft)
29.12.2016 02:00 -3,8 C 94 % 1040,7 hPa 0,0 l/m N 0,00 h 0 W/m 0,3 km/h (0 Bft)
29.12.2016 03:00 -4,1 C 95 % 1040,4 hPa 0,0 l/m N 0,00 h 0 W/m 0,4 km/h (0 Bft)
29.12.2016 04:00 -4,2 C 95 % 1040,3 hPa 0,0 l/m N-NO 0,00 h 0 W/m 2,3 km/h (1 Bft)
29.12.2016 05:00 -4,3 C 95 % 1040,2 hPa 0,0 l/m N-NO 0,00 h 0 W/m 2,1 km/h (1 Bft)
29.12.2016 06:00 -4,4 C 95 % 1040,1 hPa 0,0 l/m N-NO 0,00 h 0 W/m 2,8 km/h (1 Bft)
29.12.2016 07:00 -4,3 C 96 % 1040,0 hPa 0,0 l/m N-NO 0,00 h 0 W/m 4,0 km/h (1 Bft)
29.12.2016 08:00 -3,9 C 96 % 1039,9 hPa 0,0 l/m N-NO 0,08 h 16 W/m 5,5 km/h (1 Bft)
29.12.2016 09:00 -3,0 C 97 % 1040,0 hPa 0,0 l/m N-NO 0,58 h 99 W/m 7,3 km/h (2 Bft)
29.12.2016 10:00 -1,7 C 97 % 1040,0 hPa 0,0 l/m N-NO 0,92 h 205 W/m 8,6 km/h (2 Bft)
29.12.2016 11:00 -0,1 C 96 % 1039,5 hPa 0,2 l/m NO 1,00 h 262 W/m 11,6 km/h (2 Bft)
29.12.2016 12:00 2,0 C 90 % 1039,0 hPa 0,0 l/m N-NO 1,00 h 280 W/m 10,6 km/h (2 Bft)
29.12.2016 13:00 2,9 C 87 % 1038,3 hPa 0,0 l/m N-NO 1,00 h 239 W/m 12,9 km/h (3 Bft)
29.12.2016 14:00 2,5 C 89 % 1037,8 hPa 0,0 l/m N-NO 0,83 h 146 W/m 13,2 km/h (3 Bft)
29.12.2016 15:00 1,4 C 92 % 1037,8 hPa 0,0 l/m N-NO 0,00 h 55 W/m 12,2 km/h (2 Bft)
29.12.2016 16:00 0,6 C 94 % 1038,1 hPa 0,0 l/m N-NO 0,00 h 12 W/m 9,7 km/h (2 Bft)
29.12.2016 17:00 -0,0 C 95 % 1038,3 hPa 0,0 l/m N-NO 0,00 h 0 W/m 8,7 km/h (2 Bft)
29.12.2016 18:00 -0,2 C 96 % 1038,3 hPa 0,0 l/m N 0,00 h 0 W/m 7,9 km/h (2 Bft)
29.12.2016 19:00 -0,0 C 96 % 1038,3 hPa 0,0 l/m N-NO 0,00 h 0 W/m 9,1 km/h (2 Bft)
29.12.2016 20:00 -0,2 C 97 % 1038,1 hPa 0,0 l/m N-NO 0,00 h 0 W/m 11,7 km/h (2 Bft)
29.12.2016 21:00 -0,3 C 97 % 1037,9 hPa 0,0 l/m N-NO 0,00 h 0 W/m 10,2 km/h (2 Bft)
29.12.2016 22:00 -0,5 C 97 % 1037,6 hPa 0,0 l/m NO 0,00 h 0 W/m 8,4 km/h (2 Bft)
29.12.2016 23:00 -0,8 C 97 % 1037,8 hPa 0,0 l/m N-NO 0,00 h 0 W/m 3,3 km/h (1 Bft)
30.12.2016 00:00 -0,8 C 97 % 1038,0 hPa 0,0 l/m NO 0,00 h 0 W/m 7,1 km/h (2 Bft)
30.12.2016 01:00 -1,1 C 97 % 1037,8 hPa 0,0 l/m NO 0,00 h 0 W/m 6,1 km/h (2 Bft)
30.12.2016 02:00 -1,3 C 97 % 1037,7 hPa 0,0 l/m N 0,00 h 0 W/m 2,5 km/h (1 Bft)
30.12.2016 03:00 -1,6 C 97 % 1037,8 hPa 0,0 l/m N 0,00 h 0 W/m 0,0 km/h (0 Bft)
30.12.2016 04:00 -1,9 C 97 % 1038,1 hPa 0,0 l/m N 0,00 h 0 W/m 1,1 km/h (0 Bft)
30.12.2016 05:00 -2,0 C 97 % 1038,2 hPa 0,0 l/m N 0,00 h 0 W/m 0,4 km/h (0 Bft)
30.12.2016 06:00 -2,2 C 97 % 1038,3 hPa 0,0 l/m NO 0,00 h 0 W/m 1,5 km/h (1 Bft)
30.12.2016 07:00 -2,3 C 97 % 1038,4 hPa 0,0 l/m NO 0,00 h 0 W/m 2,1 km/h (1 Bft)
30.12.2016 08:00 -2,5 C 97 % 1038,5 hPa 0,0 l/m N 0,00 h 9 W/m 1,3 km/h (1 Bft)
30.12.2016 09:00 -2,7 C 97 % 1039,0 hPa 0,0 l/m O-NO 0,00 h 28 W/m 4,1 km/h (1 Bft)
30.12.2016 10:00 -2,8 C 98 % 1039,1 hPa 0,0 l/m O-NO 0,00 h 51 W/m 2,1 km/h (1 Bft)
30.12.2016 11:00 -2,3 C 98 % 1038,8 hPa 0,0 l/m O-NO 0,00 h 71 W/m 2,9 km/h (1 Bft)
30.12.2016 12:00 -2,1 C 98 % 1038,2 hPa 0,0 l/m O 0,00 h 89 W/m 2,4 km/h (1 Bft)
30.12.2016 13:00 -2,0 C 97 % 1037,6 hPa 0,0 l/m O-SO 0,00 h 87 W/m 7,1 km/h (2 Bft)
30.12.2016 14:00 -1,9 C 96 % 1037,3 hPa 0,0 l/m SO 0,00 h 70 W/m 5,9 km/h (2 Bft)
30.12.2016 15:00 -1,8 C 96 % 1037,2 hPa 0,0 l/m N 0,00 h 30 W/m 0,7 km/h (0 Bft)
30.12.2016 16:00 -1,9 C 96 % 1037,5 hPa 0,0 l/m SO 0,00 h 8 W/m 1,1 km/h (0 Bft)
30.12.2016 17:00 -2,2 C 96 % 1037,7 hPa 0,0 l/m S-SO 0,00 h 0 W/m 1,6 km/h (1 Bft)
30.12.2016 18:00 -2,4 C 96 % 1037,6 hPa 0,0 l/m S-SO 0,00 h 0 W/m 3,2 km/h (1 Bft)
30.12.2016 19:00 -2,4 C 96 % 1037,4 hPa 0,0 l/m S-SO 0,00 h 0 W/m 2,8 km/h (1 Bft)
30.12.2016 20:00 -2,4 C 96 % 1037,4 hPa 0,0 l/m S-SO 0,00 h 0 W/m 4,0 km/h (1 Bft)
30.12.2016 21:00 -2,5 C 97 % 1037,5 hPa 0,0 l/m S 0,00 h 0 W/m 4,0 km/h (1 Bft)
30.12.2016 22:00 -2,7 C 97 % 1037,4 hPa 0,0 l/m S-SW 0,00 h 0 W/m 4,7 km/h (1 Bft)
30.12.2016 23:00 -2,9 C 97 % 1037,5 hPa 0,0 l/m S-SW 0,00 h 0 W/m 4,3 km/h (1 Bft)
31.12.2016 00:00 -2,8 C 97 % 1037,3 hPa 0,0 l/m SW 0,00 h 0 W/m 4,4 km/h (1 Bft)
31.12.2016 01:00 -2,5 C 97 % 1037,1 hPa 0,0 l/m SW 0,00 h 0 W/m 6,0 km/h (2 Bft)
31.12.2016 02:00 -2,5 C 97 % 1036,9 hPa 0,0 l/m W-SW 0,00 h 0 W/m 8,6 km/h (2 Bft)
31.12.2016 03:00 -2,7 C 98 % 1036,5 hPa 0,0 l/m W-SW 0,00 h 0 W/m 9,4 km/h (2 Bft)
31.12.2016 04:00 -2,5 C 98 % 1036,1 hPa 0,0 l/m W-SW 0,00 h 0 W/m 9,9 km/h (2 Bft)
31.12.2016 05:00 -2,4 C 98 % 1035,7 hPa 0,0 l/m W-SW 0,00 h 0 W/m 9,3 km/h (2 Bft)
31.12.2016 06:00 -2,6 C 98 % 1035,5 hPa 0,0 l/m W-SW 0,00 h 0 W/m 9,9 km/h (2 Bft)
31.12.2016 07:00 -3,0 C 98 % 1035,5 hPa 0,0 l/m SW 0,00 h 0 W/m 11,3 km/h (2 Bft)
31.12.2016 08:00 -3,3 C 98 % 1035,9 hPa 0,0 l/m SW 0,00 h 11 W/m 9,8 km/h (2 Bft)
31.12.2016 09:00 -3,1 C 98 % 1036,1 hPa 0,0 l/m SW 0,00 h 35 W/m 10,1 km/h (2 Bft)
31.12.2016 10:00 -2,7 C 98 % 1036,0 hPa 0,0 l/m SW 0,00 h 62 W/m 7,6 km/h (2 Bft)
31.12.2016 11:00 -2,4 C 98 % 1035,4 hPa 0,0 l/m W-SW 0,00 h 84 W/m 7,4 km/h (2 Bft)
31.12.2016 12:00 -2,0 C 98 % 1034,7 hPa 0,0 l/m W-SW 0,00 h 102 W/m 5,6 km/h (1 Bft)
31.12.2016 13:00 -1,8 C 98 % 1033,9 hPa 0,0 l/m W-SW 0,00 h 94 W/m 6,0 km/h (2 Bft)
31.12.2016 14:00 -1,6 C 98 % 1033,4 hPa 0,0 l/m W-SW 0,00 h 70 W/m 1,9 km/h (1 Bft)
31.12.2016 15:00 -1,6 C 98 % 1033,0 hPa 0,0 l/m W-SW 0,00 h 35 W/m 4,9 km/h (1 Bft)
31.12.2016 16:00 -1,6 C 98 % 1032,5 hPa 0,0 l/m W-SW 0,00 h 9 W/m 6,5 km/h (2 Bft)
31.12.2016 17:00 -1,9 C 98 % 1032,3 hPa 0,0 l/m W-SW 0,00 h 0 W/m 5,5 km/h (1 Bft)
31.12.2016 18:00 -2,3 C 98 % 1032,0 hPa 0,0 l/m W-SW 0,00 h 0 W/m 6,7 km/h (2 Bft)
31.12.2016 19:00 -2,7 C 98 % 1031,7 hPa 0,0 l/m SW 0,00 h 0 W/m 9,1 km/h (2 Bft)
31.12.2016 20:00 -3,2 C 98 % 1031,2 hPa 0,0 l/m S-SW 0,00 h 0 W/m 4,1 km/h (1 Bft)
31.12.2016 21:00 -3,5 C 98 % 1030,7 hPa 0,0 l/m S-SW 0,00 h 0 W/m 2,5 km/h (1 Bft)
31.12.2016 22:00 -3,8 C 98 % 1030,2 hPa 0,0 l/m S-SW 0,00 h 0 W/m 5,7 km/h (1 Bft)
31.12.2016 23:00 -4,1 C 98 % 1029,6 hPa 0,0 l/m S-SW 0,00 h 0 W/m 4,1 km/h (1 Bft)
01.01.2017 00:00 -4,4 C 98 % 1028,9 hPa 0,0 l/m SW 0,00 h 0 W/m 6,3 km/h (2 Bft)
01.01.2017 01:00 -4,5 C 98 % 1028,3 hPa 0,0 l/m SW 0,00 h 0 W/m 7,1 km/h (2 Bft)
01.01.2017 02:00 -4,1 C 98 % 1027,8 hPa 0,0 l/m SW 0,00 h 0 W/m 9,8 km/h (2 Bft)
01.01.2017 03:00 -3,7 C 98 % 1027,1 hPa 0,0 l/m SW 0,00 h 0 W/m 14,2 km/h (3 Bft)
01.01.2017 04:00 -3,9 C 98 % 1026,3 hPa 0,0 l/m SW 0,00 h 0 W/m 12,1 km/h (2 Bft)
01.01.2017 05:00 -3,8 C 98 % 1025,8 hPa 0,0 l/m SW 0,00 h 0 W/m 9,1 km/h (2 Bft)
01.01.2017 06:00 -3,8 C 98 % 1025,4 hPa 0,0 l/m SW 0,00 h 0 W/m 9,8 km/h (2 Bft)
01.01.2017 07:00 -3,9 C 98 % 1025,4 hPa 0,0 l/m W-SW 0,00 h 0 W/m 9,5 km/h (2 Bft)
01.01.2017 08:00 -4,1 C 98 % 1024,9 hPa 0,0 l/m SW 0,00 h 15 W/m 8,6 km/h (2 Bft)
01.01.2017 09:00 -4,2 C 98 % 1024,8 hPa 0,0 l/m SW 0,00 h 50 W/m 8,8 km/h (2 Bft)
01.01.2017 10:00 -4,1 C 98 % 1024,5 hPa 0,0 l/m SW 0,00 h 86 W/m 5,5 km/h (1 Bft)
01.01.2017 11:00 -3,5 C 98 % 1023,6 hPa 0,0 l/m SW 0,08 h 150 W/m 8,7 km/h (2 Bft)
01.01.2017 12:00 -3,0 C 98 % 1022,7 hPa 0,0 l/m SW 0,17 h 158 W/m 9,7 km/h (2 Bft)
01.01.2017 13:00 -2,7 C 97 % 1021,9 hPa 0,0 l/m SW 0,08 h 133 W/m 9,3 km/h (2 Bft)
01.01.2017 14:00 -2,7 C 97 % 1021,1 hPa 0,0 l/m SW 0,00 h 95 W/m 9,0 km/h (2 Bft)
01.01.2017 15:00 -2,8 C 97 % 1020,8 hPa 0,0 l/m S-SW 0,00 h 43 W/m 10,2 km/h (2 Bft)
01.01.2017 16:00 -3,0 C 97 % 1020,6 hPa 0,0 l/m S-SW 0,00 h 12 W/m 10,7 km/h (2 Bft)
01.01.2017 17:00 -3,3 C 97 % 1020,7 hPa 0,0 l/m SW 0,00 h 0 W/m 9,5 km/h (2 Bft)
01.01.2017 18:00 -3,5 C 98 % 1021,0 hPa 0,0 l/m SW 0,00 h 0 W/m 9,5 km/h (2 Bft)
01.01.2017 19:00 -3,7 C 98 % 1021,2 hPa 0,0 l/m SW 0,00 h 0 W/m 9,5 km/h (2 Bft)
01.01.2017 20:00 -3,8 C 98 % 1021,5 hPa 0,0 l/m SW 0,00 h 0 W/m 12,0 km/h (2 Bft)
01.01.2017 21:00 -3,6 C 98 % 1021,8 hPa 0,0 l/m SW 0,00 h 0 W/m 15,2 km/h (3 Bft)
01.01.2017 22:00 -3,4 C 98 % 1021,6 hPa 0,0 l/m SW 0,00 h 0 W/m 8,7 km/h (2 Bft)
01.01.2017 23:00 -3,3 C 98 % 1021,7 hPa 0,0 l/m SW 0,00 h 0 W/m 8,7 km/h (2 Bft)
Min-Datum _ 28.12.16 27.12.16 01.01.17 - - - - 26.12.16
_ Min-Zeit 08:45 14:55 16:25 - - - - 00:20
Minimum _ -4,6 C 65 % 1020,5 hPa - - - - 0,0 km/h (0 Bft)
Max-Datum _ 26.12.16 28.12.16 27.12.16 26.12.16 - 26.12.16 26.12.16 26.12.16
_ Max-Zeit 12:55 22:20 22:05 20:50 - 08:25 12:00 18:35
Maximum _ 9,3 C 100 % 1044,5 hPa 0,4 l/m - 0,08 h 392 W/m 24,1 km/h
SW (4 Bft)
Durchschnitt _ -0,8 C 94 % 1035,5 hPa #1,0 l/m SW #21:15 h 107 W/m 5,8 km/h (2 Bft)